createdAt,value
2023-01-22T00:00:20.067Z,2.00
2023-01-22T00:02:49.208Z,2.00
2023-01-22T00:05:17.424Z,3.00
2023-01-22T00:07:45.541Z,2.00
2023-01-22T00:10:13.671Z,2.00
2023-01-22T00:12:41.722Z,1.60
2023-01-22T00:15:11.555Z,1.50
2023-01-22T00:17:39.587Z,5.80
2023-01-22T00:20:08.529Z,2.33
2023-01-22T00:22:36.963Z,2.00
2023-01-22T00:25:06.093Z,2.00
2023-01-22T00:27:34.268Z,2.00
2023-01-22T00:30:02.326Z,3.00
2023-01-22T00:32:33.108Z,2.50
2023-01-22T00:35:01.186Z,3.80
2023-01-22T00:37:29.220Z,2.33
2023-01-22T00:39:57.287Z,3.00
2023-01-22T00:42:25.502Z,2.00
2023-01-22T00:44:54.880Z,3.40
2023-01-22T00:47:22.968Z,5.00
2023-01-22T00:49:52.431Z,3.00
2023-01-22T00:52:20.481Z,3.00
2023-01-22T00:54:48.558Z,2.75
2023-01-22T00:57:19.700Z,5.00
2023-01-22T00:59:48.384Z,6.00
2023-01-22T01:02:16.556Z,3.00
2023-01-22T01:04:46.978Z,3.00
2023-01-22T01:07:16.381Z,3.00
2023-01-22T01:09:45.657Z,3.80
2023-01-22T01:12:14.849Z,5.00
2023-01-22T01:14:42.918Z,3.50
2023-01-22T01:17:10.975Z,2.00
2023-01-22T01:19:39.042Z,1.50
2023-01-22T01:22:08.242Z,3.00
2023-01-22T01:24:37.667Z,2.60
2023-01-22T01:27:05.714Z,4.60
2023-01-22T01:29:33.829Z,2.20
2023-01-22T01:32:01.991Z,3.00
2023-01-22T01:34:30.165Z,4.20
2023-01-22T01:36:58.233Z,5.00
2023-01-22T01:39:26.291Z,3.00
2023-01-22T01:41:56.025Z,5.00
2023-01-22T01:44:24.741Z,3.00
2023-01-22T01:46:55.184Z,5.00
2023-01-22T01:49:27.364Z,2.00
2023-01-22T01:51:55.651Z,3.00
2023-01-22T01:54:23.720Z,3.00
2023-01-22T01:56:52.861Z,5.00
2023-01-22T01:59:22.879Z,3.00
2023-01-22T02:01:53.818Z,5.00
2023-01-22T02:04:21.970Z,2.00
2023-01-22T02:06:50.004Z,2.80
2023-01-22T02:09:18.303Z,3.00
2023-01-22T02:11:46.331Z,3.00
2023-01-22T02:14:15.504Z,5.75
2023-01-22T02:16:44.931Z,3.00
2023-01-22T02:19:12.998Z,5.50
2023-01-22T02:21:43.101Z,3.00
2023-01-22T02:24:12.112Z,2.00
2023-01-22T02:26:41.045Z,5.00
2023-01-22T02:29:11.088Z,3.00
2023-01-22T02:31:39.684Z,7.00
2023-01-22T02:34:07.920Z,2.00
2023-01-22T02:36:37.510Z,6.00
2023-01-22T02:39:07.161Z,3.00
2023-01-22T02:41:35.231Z,3.40
2023-01-22T02:44:03.821Z,5.80
2023-01-22T02:46:31.863Z,5.00
2023-01-22T02:48:59.929Z,5.00
2023-01-22T02:51:27.964Z,5.00
2023-01-22T02:53:56.127Z,2.40
2023-01-22T02:56:25.584Z,2.00
2023-01-22T02:58:53.663Z,2.00
2023-01-22T03:01:24.411Z,2.60
2023-01-22T03:03:55.382Z,2.00
2023-01-22T03:06:24.285Z,2.00
2023-01-22T03:08:53.851Z,3.00
2023-01-22T03:11:22.027Z,2.80
2023-01-22T03:14:09.644Z,2.60
2023-01-22T03:16:55.387Z,5.00
2023-01-22T03:19:42.524Z,3.00
2023-01-22T03:22:16.226Z,2.00
2023-01-22T03:24:44.325Z,2.00
2023-01-22T03:27:12.400Z,2.20
2023-01-22T03:29:42.484Z,2.00
2023-01-22T03:32:11.623Z,2.00
2023-01-22T03:34:39.779Z,3.00
2023-01-22T03:37:07.874Z,3.00
2023-01-22T03:39:37.447Z,3.00
2023-01-22T03:42:05.742Z,4.00
2023-01-22T03:44:33.807Z,1.80
2023-01-22T03:47:03.268Z,3.00
2023-01-22T03:49:31.329Z,5.00
2023-01-22T03:51:59.429Z,2.00
2023-01-22T03:54:27.605Z,2.20
2023-01-22T03:56:58.154Z,1.00
2023-01-22T03:59:32.774Z,3.80
2023-01-22T04:02:00.879Z,3.40
2023-01-22T04:04:31.561Z,3.00
2023-01-22T04:07:00.114Z,3.40
2023-01-22T04:09:28.211Z,3.00
2023-01-22T04:11:57.971Z,3.00
2023-01-22T04:14:27.434Z,3.50
2023-01-22T04:16:58.911Z,2.20
2023-01-22T04:19:33.580Z,1.60
2023-01-22T04:22:04.175Z,6.00
2023-01-22T04:24:33.957Z,6.00
2023-01-22T04:27:02.712Z,2.00
2023-01-22T04:29:30.780Z,3.00
2023-01-22T04:31:59.379Z,5.00
2023-01-22T04:34:48.749Z,5.00
2023-01-22T04:37:23.208Z,9.20
2023-01-22T04:39:51.352Z,4.50
2023-01-22T04:42:19.434Z,5.40
2023-01-22T04:44:48.497Z,7.00
2023-01-22T04:47:16.898Z,6.00
2023-01-22T04:49:45.013Z,5.00
2023-01-22T04:52:16.690Z,5.00
2023-01-22T04:54:45.012Z,5.80
2023-01-22T04:57:13.165Z,6.00
2023-01-22T04:59:41.308Z,3.00
2023-01-22T05:02:09.428Z,3.00
2023-01-22T05:04:37.624Z,4.20
2023-01-22T05:07:05.690Z,5.00
2023-01-22T05:09:35.128Z,6.00
2023-01-22T05:12:03.213Z,5.00
2023-01-22T05:14:37.077Z,7.00
2023-01-22T05:17:05.288Z,5.00
2023-01-22T05:19:35.399Z,4.80
2023-01-22T05:22:04.583Z,5.75
2023-01-22T05:24:35.157Z,6.25
2023-01-22T05:27:03.335Z,7.00
2023-01-22T05:29:39.532Z,5.40
2023-01-22T05:32:18.913Z,6.00
2023-01-22T05:34:53.367Z,9.50
2023-01-22T05:37:21.803Z,7.00
2023-01-22T05:39:53.347Z,7.00
2023-01-22T05:42:22.019Z,9.00
2023-01-22T05:44:51.435Z,7.00
2023-01-22T05:47:22.623Z,6.60
2023-01-22T05:50:10.293Z,10.00
2023-01-22T05:52:38.453Z,9.00
2023-01-22T05:55:08.838Z,9.00
2023-01-22T05:57:42.613Z,10.00
2023-01-22T06:00:13.092Z,10.40
2023-01-22T06:02:56.409Z,11.00
2023-01-22T06:05:24.664Z,10.00
2023-01-22T06:07:59.970Z,15.00
2023-01-22T06:10:33.719Z,11.00
2023-01-22T06:13:02.392Z,10.20
2023-01-22T06:15:30.599Z,10.80
2023-01-22T06:18:10.530Z,10.00
2023-01-22T06:20:39.614Z,12.00
2023-01-22T06:23:09.551Z,13.00
2023-01-22T06:25:39.431Z,11.00
2023-01-22T06:28:14.855Z,9.20
2023-01-22T06:30:44.643Z,11.60
2023-01-22T06:33:12.778Z,8.50
2023-01-22T06:35:40.932Z,12.40
2023-01-22T06:38:09.401Z,8.00
2023-01-22T06:40:39.100Z,15.00
2023-01-22T06:43:10.794Z,10.25
2023-01-22T06:45:39.653Z,10.00
2023-01-22T06:48:10.057Z,11.00
2023-01-22T06:50:39.339Z,11.00
2023-01-22T06:53:07.438Z,12.60
2023-01-22T06:55:35.590Z,10.00
2023-01-22T06:58:05.084Z,13.75
2023-01-22T07:00:33.349Z,16.20
2023-01-22T07:03:01.399Z,9.00
2023-01-22T07:05:29.666Z,12.50
2023-01-22T07:07:57.703Z,10.00
2023-01-22T07:10:25.763Z,10.00
2023-01-22T07:12:55.571Z,10.00
2023-01-22T07:15:24.992Z,11.00
2023-01-22T07:17:53.119Z,11.75
2023-01-22T07:20:21.514Z,13.60
2023-01-22T07:22:49.561Z,9.80
2023-01-22T07:25:17.767Z,14.00
2023-01-22T07:27:45.833Z,15.75
2023-01-22T07:30:14.615Z,14.25
2023-01-22T07:32:43.999Z,20.00
2023-01-22T07:35:12.074Z,25.40
2023-01-22T07:37:40.112Z,30.50
2023-01-22T07:40:09.255Z,22.00
2023-01-22T07:42:38.835Z,20.80
2023-01-22T07:45:08.043Z,14.80
2023-01-22T07:47:36.049Z,10.00
2023-01-22T07:50:06.326Z,11.00
2023-01-22T07:52:34.360Z,11.25
2023-01-22T07:55:02.416Z,11.00
2023-01-22T07:57:30.462Z,10.00
2023-01-22T07:59:58.499Z,9.60
2023-01-22T08:02:26.588Z,12.00
2023-01-22T08:04:54.649Z,8.20
2023-01-22T08:07:24.560Z,11.25
2023-01-22T08:09:53.245Z,14.00
2023-01-22T08:12:21.305Z,11.60
2023-01-22T08:14:49.336Z,12.40
2023-01-22T08:17:17.399Z,14.00
2023-01-22T08:19:45.429Z,14.00
2023-01-22T08:22:13.482Z,19.00
2023-01-22T08:24:43.430Z,19.40
2023-01-22T08:27:11.491Z,14.60
2023-01-22T08:29:39.609Z,15.80
2023-01-22T08:32:07.997Z,16.00
2023-01-22T08:34:36.086Z,17.00
2023-01-22T08:37:04.155Z,14.80
2023-01-22T08:39:32.207Z,15.60
2023-01-22T08:42:01.637Z,18.00
2023-01-22T08:44:29.665Z,16.00
2023-01-22T08:46:58.383Z,16.80
2023-01-22T08:49:26.597Z,20.40
2023-01-22T08:51:54.769Z,15.40
2023-01-22T08:54:22.798Z,17.60
2023-01-22T08:56:50.852Z,15.00
2023-01-22T08:59:20.328Z,16.00
2023-01-22T09:01:48.502Z,10.25
2023-01-22T09:04:16.545Z,14.80
2023-01-22T09:06:44.610Z,10.60
2023-01-22T09:09:13.179Z,12.00
2023-01-22T09:11:41.267Z,15.25
2023-01-22T09:14:10.104Z,11.00
2023-01-22T09:16:39.583Z,22.00
2023-01-22T09:19:07.712Z,12.00
2023-01-22T09:21:37.427Z,10.00
2023-01-22T09:24:05.846Z,15.00
2023-01-22T09:26:33.927Z,14.80
2023-01-22T09:29:04.276Z,10.00
2023-01-22T09:31:32.424Z,12.00
2023-01-22T09:34:01.936Z,11.40
2023-01-22T09:36:30.056Z,11.00
2023-01-22T09:38:58.080Z,15.20
2023-01-22T09:41:27.439Z,11.00
2023-01-22T09:43:56.176Z,13.50
2023-01-22T09:46:28.805Z,14.40
2023-01-22T09:48:58.727Z,11.40
2023-01-22T09:51:28.142Z,13.60
2023-01-22T09:53:57.824Z,14.25
2023-01-22T09:56:30.659Z,14.00
2023-01-22T09:58:58.727Z,16.00
2023-01-22T10:01:26.825Z,14.20
2023-01-22T10:03:57.469Z,15.25
2023-01-22T10:06:28.440Z,11.60
2023-01-22T10:09:01.723Z,15.00
2023-01-22T10:11:29.795Z,11.00
2023-01-22T10:13:58.884Z,11.75
2023-01-22T10:16:27.132Z,14.00
2023-01-22T10:18:57.081Z,11.00
2023-01-22T10:21:27.947Z,13.60
2023-01-22T10:23:58.168Z,14.00
2023-01-22T10:26:30.989Z,16.60
2023-01-22T10:28:59.603Z,12.00
2023-01-22T10:31:29.359Z,13.00
2023-01-22T10:33:58.994Z,13.50
2023-01-22T10:36:28.637Z,14.25
2023-01-22T10:39:11.594Z,15.00
2023-01-22T10:41:39.669Z,14.00
2023-01-22T10:44:22.330Z,15.40
2023-01-22T10:46:51.006Z,15.00
2023-01-22T10:49:20.496Z,15.75
2023-01-22T10:51:55.066Z,16.60
2023-01-22T10:54:25.981Z,19.75
2023-01-22T10:56:54.520Z,14.75
2023-01-22T10:59:24.076Z,22.80
2023-01-22T11:01:57.711Z,18.50
2023-01-22T11:04:28.526Z,17.00
2023-01-22T11:07:01.159Z,17.00
2023-01-22T11:09:34.486Z,17.80
2023-01-22T11:12:05.829Z,18.50
2023-01-22T11:14:34.845Z,21.50
2023-01-22T11:17:06.363Z,20.00
2023-01-22T11:19:40.879Z,19.00
2023-01-22T11:22:18.082Z,21.00
2023-01-22T11:24:47.411Z,19.75
2023-01-22T11:27:25.305Z,17.00
2023-01-22T11:30:01.441Z,20.40
2023-01-22T11:32:42.750Z,17.00
2023-01-22T11:35:19.320Z,15.00
2023-01-22T11:38:00.023Z,21.60
2023-01-22T11:40:29.064Z,20.40
2023-01-22T11:43:10.231Z,20.00
2023-01-22T11:45:54.045Z,16.00
2023-01-22T11:48:31.168Z,17.60
2023-01-22T11:51:03.412Z,23.50
2023-01-22T11:53:43.430Z,15.00
2023-01-22T11:56:32.919Z,16.40
2023-01-22T11:59:03.883Z,23.00
2023-01-22T12:01:42.210Z,20.50
2023-01-22T12:04:37.100Z,21.00
2023-01-22T12:07:24.953Z,16.00
2023-01-22T12:09:59.437Z,20.00
2023-01-22T12:12:39.218Z,19.40
2023-01-22T12:15:21.926Z,25.25
2023-01-22T12:17:59.622Z,20.60
2023-01-22T12:20:37.315Z,19.20
2023-01-22T12:23:07.461Z,22.00
2023-01-22T12:25:42.961Z,17.67
2023-01-22T12:28:15.916Z,22.00
2023-01-22T12:30:47.823Z,18.00
2023-01-22T12:33:17.919Z,17.00
2023-01-22T12:35:46.117Z,17.40
2023-01-22T12:38:17.147Z,15.40
2023-01-22T12:41:22.264Z,13.00
2023-01-22T12:43:52.282Z,19.80
2023-01-22T12:46:25.760Z,15.00
2023-01-22T12:48:59.793Z,20.20
2023-01-22T12:51:29.341Z,16.50
2023-01-22T12:53:57.375Z,20.50
2023-01-22T12:56:33.342Z,16.00
2023-01-22T12:59:01.472Z,21.00
2023-01-22T13:01:37.179Z,19.60
2023-01-22T13:04:06.853Z,21.25
2023-01-22T13:06:36.300Z,16.00
2023-01-22T13:09:05.110Z,19.60
2023-01-22T13:11:35.962Z,15.00
2023-01-22T13:14:20.050Z,18.00
2023-01-22T13:16:52.975Z,21.40
2023-01-22T13:19:22.141Z,16.00
2023-01-22T13:21:50.499Z,19.40
2023-01-22T13:24:19.586Z,18.80
2023-01-22T13:26:57.186Z,17.50
2023-01-22T13:29:28.112Z,17.50
2023-01-22T13:31:57.479Z,17.60
2023-01-22T13:34:25.769Z,22.00
2023-01-22T13:36:53.857Z,20.00
2023-01-22T13:39:22.959Z,20.00
2023-01-22T13:41:52.310Z,18.00
2023-01-22T13:44:23.136Z,18.00
2023-01-22T13:46:51.643Z,17.00
2023-01-22T13:49:22.381Z,18.00
2023-01-22T13:51:50.690Z,18.00
2023-01-22T13:54:22.187Z,17.00
2023-01-22T13:56:50.417Z,22.00
2023-01-22T13:59:24.217Z,17.50
2023-01-22T14:01:52.383Z,21.50
2023-01-22T14:04:34.519Z,15.80
2023-01-22T14:07:02.606Z,18.33
2023-01-22T14:09:31.872Z,16.40
2023-01-22T14:12:00.121Z,21.40
2023-01-22T14:14:39.635Z,19.50
2023-01-22T14:17:07.814Z,19.20
2023-01-22T14:19:35.817Z,19.00
2023-01-22T14:22:03.870Z,20.25
2023-01-22T14:24:31.980Z,19.00
2023-01-22T14:27:00.044Z,16.60
2023-01-22T14:29:29.678Z,24.00
2023-01-22T14:31:57.819Z,16.40
2023-01-22T14:34:26.222Z,25.00
2023-01-22T14:36:55.016Z,22.00
2023-01-22T14:39:23.091Z,24.50
2023-01-22T14:41:51.449Z,20.00
2023-01-22T14:44:19.869Z,19.25
2023-01-22T14:46:49.371Z,21.50
2023-01-22T14:49:17.432Z,24.60
2023-01-22T14:51:45.455Z,22.00
2023-01-22T14:54:13.510Z,20.00
2023-01-22T14:56:41.543Z,24.50
2023-01-22T14:59:09.609Z,21.40
2023-01-22T15:01:37.652Z,28.50
2023-01-22T15:04:07.429Z,24.80
2023-01-22T15:06:35.482Z,28.20
2023-01-22T15:09:03.596Z,22.40
2023-01-22T15:11:31.617Z,21.00
2023-01-22T15:13:59.679Z,30.00
2023-01-22T15:16:27.824Z,30.00
2023-01-22T15:18:56.636Z,18.20
2023-01-22T15:21:26.042Z,25.80
2023-01-22T15:23:54.117Z,22.00
2023-01-22T15:26:25.069Z,20.25
2023-01-22T15:28:53.228Z,23.50
2023-01-22T15:31:21.326Z,31.75
2023-01-22T15:33:49.438Z,19.75
2023-01-22T15:36:17.491Z,21.00
2023-01-22T15:38:46.887Z,31.00
2023-01-22T15:41:19.897Z,22.50
2023-01-22T15:43:50.913Z,24.80
2023-01-22T15:46:19.577Z,24.60
2023-01-22T15:48:47.732Z,22.00
2023-01-22T15:51:15.852Z,19.00
2023-01-22T15:53:50.355Z,24.50
2023-01-22T15:56:18.465Z,20.50
2023-01-22T15:58:46.555Z,26.00
2023-01-22T16:01:14.618Z,25.25
2023-01-22T16:03:42.713Z,25.50
2023-01-22T16:06:11.439Z,20.00
2023-01-22T16:08:39.603Z,20.00
2023-01-22T16:11:08.990Z,20.60
2023-01-22T16:13:37.058Z,21.80
2023-01-22T16:16:06.358Z,24.75
2023-01-22T16:18:34.925Z,22.00
2023-01-22T16:21:03.003Z,21.00
2023-01-22T16:23:31.255Z,21.20
2023-01-22T16:25:59.817Z,29.40
2023-01-22T16:28:29.261Z,21.50
2023-01-22T16:30:57.355Z,23.00
2023-01-22T16:33:27.033Z,25.40
2023-01-22T16:36:00.077Z,23.50
2023-01-22T16:38:28.336Z,22.75
2023-01-22T16:40:56.380Z,20.50
2023-01-22T16:43:24.434Z,21.00
2023-01-22T16:45:53.877Z,24.00
2023-01-22T16:48:21.942Z,24.50
2023-01-22T16:50:50.010Z,20.60
2023-01-22T16:53:18.068Z,19.00
2023-01-22T16:55:46.191Z,30.80
2023-01-22T16:58:14.216Z,24.50
2023-01-22T17:00:42.356Z,25.80
2023-01-22T17:03:11.777Z,19.00
2023-01-22T17:05:39.818Z,19.50
2023-01-22T17:08:07.946Z,22.00
2023-01-22T17:10:36.721Z,19.50
2023-01-22T17:13:06.404Z,22.80
2023-01-22T17:15:34.476Z,21.25
2023-01-22T17:18:02.541Z,20.00
2023-01-22T17:20:31.943Z,20.80
2023-01-22T17:23:00.016Z,22.00
2023-01-22T17:25:28.070Z,21.00
2023-01-22T17:27:56.131Z,16.00
2023-01-22T17:30:24.170Z,21.25
2023-01-22T17:32:52.281Z,16.80
2023-01-22T17:35:20.655Z,19.00
2023-01-22T17:37:50.223Z,22.50
2023-01-22T17:40:18.611Z,17.00
2023-01-22T17:42:46.646Z,27.80
2023-01-22T17:45:14.744Z,17.25
2023-01-22T17:47:44.609Z,20.00
2023-01-22T17:50:13.846Z,24.80
2023-01-22T17:52:41.889Z,22.00
2023-01-22T17:55:11.804Z,24.00
2023-01-22T17:57:41.468Z,22.80
2023-01-22T18:00:11.318Z,21.00
2023-01-22T18:02:39.374Z,18.80
2023-01-22T18:05:10.313Z,17.00
2023-01-22T18:07:38.591Z,21.00
2023-01-22T18:10:07.192Z,16.00
2023-01-22T18:12:36.602Z,24.40
2023-01-22T18:15:05.351Z,18.00
2023-01-22T18:17:33.354Z,20.50
2023-01-22T18:20:01.444Z,16.00
2023-01-22T18:22:29.481Z,16.00
2023-01-22T18:24:59.123Z,21.00
2023-01-22T18:27:27.192Z,19.80
2023-01-22T18:29:56.654Z,26.00
2023-01-22T18:32:24.704Z,22.80
2023-01-22T18:34:52.769Z,20.00
2023-01-22T18:37:20.809Z,26.60
2023-01-22T18:39:49.014Z,22.00
2023-01-22T18:42:17.049Z,21.25
2023-01-22T18:44:45.124Z,26.00
2023-01-22T18:47:15.560Z,23.50
2023-01-22T18:49:43.706Z,25.00
2023-01-22T18:52:11.728Z,26.60
2023-01-22T18:54:39.796Z,22.50
2023-01-22T18:57:07.834Z,27.75
2023-01-22T18:59:35.910Z,21.00
2023-01-22T19:02:04.022Z,29.20
2023-01-22T19:04:33.844Z,30.33
2023-01-22T19:07:01.952Z,25.00
2023-01-22T19:09:31.717Z,25.00
2023-01-22T19:11:59.826Z,20.50
2023-01-22T19:14:27.902Z,23.25
2023-01-22T19:16:55.963Z,23.00
2023-01-22T19:19:24.173Z,22.00
2023-01-22T19:21:55.299Z,21.50
2023-01-22T19:24:26.692Z,17.00
2023-01-22T19:26:55.162Z,21.60
2023-01-22T19:29:24.210Z,25.60
2023-01-22T19:31:52.549Z,21.50
2023-01-22T19:34:24.277Z,20.00
2023-01-22T19:36:55.728Z,21.00
2023-01-22T19:39:25.340Z,20.00
2023-01-22T19:41:54.195Z,23.60
2023-01-22T19:44:22.274Z,21.40
2023-01-22T19:46:50.411Z,22.80
2023-01-22T19:49:18.517Z,18.00
2023-01-22T19:51:46.613Z,18.40
2023-01-22T19:54:16.031Z,21.00
2023-01-22T19:56:45.749Z,19.80
2023-01-22T19:59:15.016Z,18.50
2023-01-22T20:01:43.192Z,16.40
2023-01-22T20:04:15.797Z,20.00
2023-01-22T20:06:45.289Z,17.80
2023-01-22T20:09:13.390Z,19.80
2023-01-22T20:11:43.886Z,17.00
2023-01-22T20:14:12.091Z,21.20
2023-01-22T20:16:40.772Z,17.00
2023-01-22T20:19:08.817Z,19.25
2023-01-22T20:21:36.851Z,21.25
2023-01-22T20:24:05.187Z,23.40
2023-01-22T20:26:33.221Z,19.40
2023-01-22T20:29:02.635Z,17.00
2023-01-22T20:31:30.780Z,21.75
2023-01-22T20:33:59.020Z,17.00
2023-01-22T20:36:27.855Z,20.00
2023-01-22T20:38:55.954Z,17.80
2023-01-22T20:41:24.933Z,18.80
2023-01-22T20:43:53.910Z,17.50
2023-01-22T20:46:24.255Z,19.00
2023-01-22T20:48:52.359Z,24.40
2023-01-22T20:51:21.616Z,16.00
2023-01-22T20:53:50.374Z,20.00
2023-01-22T20:56:19.274Z,19.80
2023-01-22T20:58:47.435Z,15.25
2023-01-22T21:01:19.086Z,15.80
2023-01-22T21:03:48.776Z,19.00
2023-01-22T21:06:18.126Z,23.60
2023-01-22T21:08:49.515Z,19.00
2023-01-22T21:11:19.791Z,19.00
2023-01-22T21:13:47.989Z,19.20
2023-01-22T21:16:17.375Z,20.00
2023-01-22T21:18:46.393Z,16.50
2023-01-22T21:21:17.878Z,18.00
2023-01-22T21:23:47.227Z,16.00
2023-01-22T21:26:16.307Z,19.00
2023-01-22T21:28:44.392Z,16.00
2023-01-22T21:31:13.290Z,25.00
2023-01-22T21:33:41.370Z,17.00
2023-01-22T21:36:10.005Z,17.40
2023-01-22T21:38:39.854Z,21.00
2023-01-22T21:41:08.679Z,16.80
2023-01-22T21:43:54.105Z,16.00
2023-01-22T21:46:26.122Z,13.00
2023-01-22T21:48:55.313Z,12.00
2023-01-22T21:51:23.404Z,21.50
2023-01-22T21:53:53.417Z,16.60
2023-01-22T21:56:21.472Z,16.00
2023-01-22T21:58:49.571Z,16.00
2023-01-22T22:01:18.742Z,15.50
2023-01-22T22:03:46.805Z,20.00
2023-01-22T22:06:14.888Z,19.50
2023-01-22T22:08:43.607Z,16.50
2023-01-22T22:11:13.950Z,17.00
2023-01-22T22:13:42.017Z,14.00
2023-01-22T22:16:11.054Z,19.00
2023-01-22T22:18:39.134Z,16.00
2023-01-22T22:21:08.693Z,15.40
2023-01-22T22:23:37.125Z,16.60
2023-01-22T22:26:05.422Z,18.50
2023-01-22T22:28:34.995Z,21.80
2023-01-22T22:31:04.454Z,16.00
2023-01-22T22:33:32.492Z,15.00
2023-01-22T22:36:01.830Z,16.00
2023-01-22T22:38:29.966Z,17.00
2023-01-22T22:41:01.958Z,17.00
2023-01-22T22:43:34.442Z,16.25
2023-01-22T22:46:04.141Z,16.00
2023-01-22T22:48:32.436Z,21.20
2023-01-22T22:51:00.921Z,17.00
2023-01-22T22:53:28.980Z,19.33
2023-01-22T22:55:57.041Z,17.80
2023-01-22T22:58:25.127Z,18.00
2023-01-22T23:00:54.561Z,13.50
2023-01-22T23:03:22.624Z,14.60
2023-01-22T23:05:50.758Z,16.40
2023-01-22T23:08:18.832Z,16.40
2023-01-22T23:10:46.895Z,14.60
2023-01-22T23:13:14.927Z,16.60
2023-01-22T23:15:42.991Z,19.40
2023-01-22T23:18:12.390Z,15.60
2023-01-22T23:20:40.442Z,19.00
2023-01-22T23:23:08.478Z,15.75
2023-01-22T23:25:36.529Z,20.00
2023-01-22T23:28:04.679Z,20.00
2023-01-22T23:30:32.856Z,18.00
2023-01-22T23:33:00.913Z,19.00
2023-01-22T23:35:30.337Z,25.25
2023-01-22T23:37:58.370Z,18.20
2023-01-22T23:40:26.427Z,25.00
2023-01-22T23:42:54.462Z,19.20
2023-01-22T23:45:22.510Z,20.00
2023-01-22T23:47:52.154Z,19.60
2023-01-22T23:50:20.618Z,21.00
2023-01-22T23:52:50.227Z,21.50
2023-01-22T23:55:18.348Z,19.50
2023-01-22T23:57:46.374Z,21.00
